createdAt,value
2019-04-06T00:01:45.865Z,33.80
2019-04-06T00:04:15.779Z,44.40
2019-04-06T00:06:45.766Z,39.00
2019-04-06T00:09:17.255Z,42.20
2019-04-06T00:11:47.266Z,43.80
2019-04-06T00:14:17.204Z,38.60
2019-04-06T00:16:47.185Z,39.20
2019-04-06T00:19:17.195Z,37.80
2019-04-06T00:21:47.217Z,36.60
2019-04-06T00:24:17.141Z,45.60
2019-04-06T00:26:47.224Z,40.00
2019-04-06T00:29:17.243Z,40.80
2019-04-06T00:31:48.806Z,44.40
2019-04-06T00:34:18.743Z,39.80
2019-04-06T00:36:48.711Z,40.00
2019-04-06T00:39:18.633Z,45.40
2019-04-06T00:41:48.615Z,37.60
2019-04-06T00:44:18.532Z,40.60
2019-04-06T00:46:48.520Z,32.60
2019-04-06T00:49:18.444Z,34.60
2019-04-06T00:51:48.464Z,38.80
2019-04-06T00:54:18.440Z,38.40
2019-04-06T00:56:48.389Z,41.20
2019-04-06T00:59:18.350Z,36.00
2019-04-06T01:01:48.264Z,36.80
2019-04-06T01:04:18.253Z,40.00
2019-04-06T01:06:48.285Z,39.00
2019-04-06T01:09:18.377Z,36.60
2019-04-06T01:11:48.312Z,33.40
2019-04-06T01:14:18.313Z,40.20
2019-04-06T01:16:48.239Z,37.00
2019-04-06T01:19:18.447Z,41.20
2019-04-06T01:21:48.375Z,35.20
2019-04-06T01:24:18.348Z,39.60
2019-04-06T01:26:48.375Z,33.40
2019-04-06T01:29:18.360Z,29.00
2019-04-06T01:31:48.313Z,34.80
2019-04-06T01:34:18.243Z,33.00
2019-04-06T01:36:48.157Z,28.80
2019-04-06T01:39:18.141Z,33.00
2019-04-06T01:41:48.099Z,40.60
2019-04-06T01:44:18.095Z,45.00
2019-04-06T01:46:48.029Z,40.60
2019-04-06T01:49:17.958Z,32.80
2019-04-06T01:51:48.124Z,37.20
2019-04-06T01:54:18.130Z,33.20
2019-04-06T01:56:48.040Z,29.60
2019-04-06T01:59:17.999Z,34.40
2019-04-06T02:01:49.500Z,33.00
2019-04-06T02:04:19.503Z,31.40
2019-04-06T02:06:49.436Z,30.20
2019-04-06T02:09:19.384Z,28.40
2019-04-06T02:11:49.311Z,34.00
2019-04-06T02:14:19.379Z,30.40
2019-04-06T02:16:49.281Z,30.60
2019-04-06T02:19:19.246Z,25.00
2019-04-06T02:21:49.211Z,26.60
2019-04-06T02:24:20.964Z,24.80
2019-04-06T02:26:50.895Z,27.20
2019-04-06T02:29:20.843Z,26.60
2019-04-06T02:31:52.375Z,25.60
2019-04-06T02:34:24.019Z,27.40
2019-04-06T02:36:55.552Z,25.40
2019-04-06T02:39:27.047Z,19.80
2019-04-06T02:41:58.597Z,25.80
2019-04-06T02:44:28.734Z,23.20
2019-04-06T02:46:58.727Z,22.40
2019-04-06T02:49:28.701Z,27.20
2019-04-06T02:51:58.656Z,26.20
2019-04-06T02:54:29.806Z,20.60
2019-04-06T02:56:59.737Z,28.00
